Time;durP1;ratioP1;P1;durP2;ratioP2;P2;SDS_P1;SDS_P2;PMS_P1;PMS_P2;Temp;Humidity;BMP_temperature;BMP_pressure;BME280_temperature;BME280_humidity;BME280_pressure;Samples;Min_cycle;Max_cycle;Signal;HPM_P1;HPM_P2
2023/03/02 00:01:27;;;;;;;10.35;4.93;;;;;;;;;;4983826;28;20070;-79
2023/03/02 00:03:53;;;;;;;;;;;;;;;;;;4983091;28;20041;-78
2023/03/02 00:06:19;;;;;;;6.65;3.97;;;;;;;;;;4986597;28;20345;-79
2023/03/02 00:08:46;;;;;;;14.20;5.90;;;;;;;;;;4985862;28;20046;-78
2023/03/02 00:11:14;;;;;;;12.88;4.85;;;;;;;;;;4985925;28;20034;-79
2023/03/02 00:13:41;;;;;;;9.20;4.70;;;;;;;;;;4981707;28;20255;-78
2023/03/02 00:16:07;;;;;;;9.75;5.10;;;;;;;;;;4984808;28;20480;-78
2023/03/02 00:18:33;;;;;;;8.15;3.70;;;;;;;;;;4978212;28;20048;-78
2023/03/02 00:20:59;;;;;;;10.35;4.80;;;;;;;;;;4982588;28;20015;-77
2023/03/02 00:23:27;;;;;;;12.18;4.80;;;;;;;;;;4985102;28;20031;-78
2023/03/02 00:25:58;;;;;;;8.40;4.05;;;;;;;;;;4978966;28;20034;-78
2023/03/02 00:28:24;;;;;;;7.00;4.15;;;;;;;;;;4975798;28;20126;-78
2023/03/02 00:30:50;;;;;;;7.18;4.07;;;;;;;;;;4983642;28;20031;-77
2023/03/02 00:33:16;;;;;;;9.77;3.92;;;;;;;;;;4986017;28;20033;-77
2023/03/02 00:35:42;;;;;;;8.68;4.20;;;;;;;;;;4975402;28;20082;-77
2023/03/02 00:38:08;;;;;;;8.98;4.55;;;;;;;;;;4978788;28;20030;-77
2023/03/02 00:40:35;;;;;;;9.43;4.20;;;;;;;;;;4984068;28;20483;-77
2023/03/02 00:43:01;;;;;;;5.97;3.97;;;;;;;;;;4984922;28;20039;-78
2023/03/02 00:45:27;;;;;;;10.25;4.22;;;;;;;;;;4968202;28;20026;-78
2023/03/02 00:47:53;;;;;;;4.90;3.20;;;;;;;;;;4985790;28;20018;-78
2023/03/02 00:50:19;;;;;;;7.82;4.20;;;;;;;;;;4980821;28;20038;-78
2023/03/02 00:52:45;;;;;;;7.03;4.10;;;;;;;;;;4982264;28;20389;-77
2023/03/02 00:55:11;;;;;;;10.93;3.92;;;;;;;;;;4982883;28;20370;-78
2023/03/02 00:57:37;;;;;;;8.98;3.50;;;;;;;;;;4984733;28;20452;-78
2023/03/02 01:00:03;;;;;;;5.78;3.08;;;;;;;;;;4978509;28;20109;-78
2023/03/02 01:02:29;;;;;;;9.73;3.45;;;;;;;;;;4975526;28;20505;-78
2023/03/02 01:04:55;;;;;;;7.03;3.33;;;;;;;;;;4981655;28;20033;-78
2023/03/02 01:07:23;;;;;;;6.55;3.70;;;;;;;;;;4977462;28;20054;-78
2023/03/02 01:09:49;;;;;;;6.45;3.97;;;;;;;;;;4983942;28;20037;-78
2023/03/02 01:12:15;;;;;;;5.18;3.33;;;;;;;;;;4981269;28;20030;-78
2023/03/02 01:14:43;;;;;;;8.27;4.13;;;;;;;;;;4986054;28;20030;-78
2023/03/02 01:17:10;;;;;;;5.13;3.28;;;;;;;;;;4979121;28;20037;-78
2023/03/02 01:19:36;;;;;;;5.80;3.47;;;;;;;;;;4986984;28;20587;-78
2023/03/02 01:22:02;;;;;;;6.40;3.75;;;;;;;;;;4983625;28;20080;-78
2023/03/02 01:24:29;;;;;;;6.38;3.45;;;;;;;;;;4982292;28;20405;-78
2023/03/02 01:26:55;;;;;;;6.50;3.20;;;;;;;;;;4980893;28;20038;-78
2023/03/02 01:29:21;;;;;;;5.38;3.13;;;;;;;;;;4976326;28;20027;-78
2023/03/02 01:31:47;;;;;;;10.80;3.17;;;;;;;;;;4978311;28;20041;-78
2023/03/02 01:34:13;;;;;;;4.82;3.13;;;;;;;;;;4983728;28;20030;-77
2023/03/02 01:36:39;;;;;;;6.18;3.42;;;;;;;;;;4977778;28;20437;-77
2023/03/02 01:39:05;;;;;;;6.10;3.17;;;;;;;;;;4981148;28;20639;-78
2023/03/02 01:41:31;;;;;;;5.45;2.83;;;;;;;;;;4985488;28;20030;-78
2023/03/02 01:44:00;;;;;;;4.65;3.13;;;;;;;;;;4983228;28;20876;-77
2023/03/02 01:46:28;;;;;;;4.50;2.80;;;;;;;;;;4984240;28;20062;-77
2023/03/02 01:48:57;;;;;;;4.45;2.80;;;;;;;;;;4984240;28;20389;-78
2023/03/02 01:51:31;;;;;;;7.70;3.70;;;;;;;;;;4989129;28;20096;-78
2023/03/02 01:54:03;;;;;;;7.93;3.20;;;;;;;;;;4987284;28;20038;-77
2023/03/02 01:56:37;;;;;;;5.07;3.15;;;;;;;;;;4989307;28;20026;-77
2023/03/02 01:59:07;;;;;;;4.10;2.60;;;;;;;;;;4982250;28;20539;-77
2023/03/02 02:01:34;;;;;;;5.95;2.72;;;;;;;;;;4984348;28;20029;-77
2023/03/02 02:04:00;;;;;;;5.07;2.88;;;;;;;;;;4984036;28;20037;-77
2023/03/02 02:06:32;;;;;;;5.35;2.78;;;;;;;;;;4987119;28;20050;-77
2023/03/02 02:09:09;;;;;;;7.57;3.13;;;;;;;;;;4978963;28;20464;-77
2023/03/02 02:11:35;;;;;;;5.07;3.05;;;;;;;;;;4986690;28;20027;-77
2023/03/02 02:14:02;;;;;;;4.10;2.33;;;;;;;;;;4988393;28;20036;-77
2023/03/02 02:16:30;;;;;;;4.72;2.65;;;;;;;;;;4985993;28;20041;-77
2023/03/02 02:18:56;;;;;;;4.65;2.92;;;;;;;;;;4988036;28;20026;-77
2023/03/02 02:21:24;;;;;;;5.60;3.05;;;;;;;;;;4986210;28;20034;-77
2023/03/02 02:23:50;;;;;;;4.75;3.15;;;;;;;;;;4988317;28;20034;-78
2023/03/02 02:26:26;;;;;;;4.32;2.58;;;;;;;;;;4981755;28;20034;-78
2023/03/02 02:28:57;;;;;;;7.00;2.70;;;;;;;;;;4986220;28;20046;-78
2023/03/02 02:31:30;;;;;;;4.97;2.63;;;;;;;;;;4985488;28;20033;-78
2023/03/02 02:33:58;;;;;;;7.65;2.67;;;;;;;;;;4987487;28;20510;-77
2023/03/02 02:36:33;;;;;;;4.70;2.72;;;;;;;;;;4986025;28;20038;-77
2023/03/02 02:39:01;;;;;;;6.50;3.15;;;;;;;;;;4989137;28;20548;-77
2023/03/02 02:41:30;;;;;;;6.38;3.38;;;;;;;;;;4983639;28;20061;-77
2023/03/02 02:43:56;;;;;;;4.82;2.42;;;;;;;;;;4983792;28;20036;-77
2023/03/02 02:46:22;;;;;;;6.28;3.08;;;;;;;;;;4987149;28;20705;-78
2023/03/02 02:48:48;;;;;;;4.55;2.58;;;;;;;;;;4981411;28;20030;-78
2023/03/02 02:51:17;;;;;;;4.63;2.63;;;;;;;;;;4984624;28;20037;-78
2023/03/02 02:54:06;;;;;;;6.32;2.58;;;;;;;;;;4986618;28;20485;-77
2023/03/02 02:56:34;;;;;;;5.53;2.85;;;;;;;;;;4987564;28;20725;-77
2023/03/02 02:59:09;;;;;;;5.63;2.30;;;;;;;;;;4986176;28;20038;-77
2023/03/02 03:01:35;;;;;;;4.53;2.30;;;;;;;;;;4985269;28;20030;-77
2023/03/02 03:04:03;;;;;;;5.57;3.03;;;;;;;;;;4984722;28;20030;-77
2023/03/02 03:06:37;;;;;;;4.55;2.33;;;;;;;;;;4987407;28;20030;-78
2023/03/02 03:09:04;;;;;;;4.20;2.35;;;;;;;;;;4987002;28;20037;-77
2023/03/02 03:11:31;;;;;;;3.50;2.30;;;;;;;;;;4984416;28;20132;-77
2023/03/02 03:14:00;;;;;;;4.05;2.35;;;;;;;;;;4985538;28;20105;-77
2023/03/02 03:16:27;;;;;;;3.65;2.20;;;;;;;;;;4983792;28;20072;-78
2023/03/02 03:18:53;;;;;;;3.88;2.40;;;;;;;;;;4982577;28;20034;-78
2023/03/02 03:21:19;;;;;;;4.30;2.70;;;;;;;;;;4986822;28;20010;-77
2023/03/02 03:23:45;;;;;;;5.18;2.20;;;;;;;;;;4987744;28;20389;-78
2023/03/02 03:26:11;;;;;;;5.00;2.75;;;;;;;;;;4987054;28;20045;-78
2023/03/02 03:28:37;;;;;;;3.45;2.20;;;;;;;;;;4986839;28;20038;-77
2023/03/02 03:31:03;;;;;;;4.55;2.30;;;;;;;;;;4985146;28;20405;-78
2023/03/02 03:33:29;;;;;;;5.00;2.33;;;;;;;;;;4981586;28;20295;-77
2023/03/02 03:35:55;;;;;;;4.00;2.38;;;;;;;;;;4982695;28;20068;-77
2023/03/02 03:38:21;;;;;;;4.40;2.22;;;;;;;;;;4985241;28;20027;-77
2023/03/02 03:40:47;;;;;;;7.38;2.70;;;;;;;;;;4984750;28;20034;-77
2023/03/02 03:43:14;;;;;;;3.00;2.08;;;;;;;;;;4981154;28;20726;-77
2023/03/02 03:45:40;;;;;;;4.18;2.25;;;;;;;;;;4984162;28;20034;-77
2023/03/02 03:48:06;;;;;;;3.45;2.00;;;;;;;;;;4984237;28;20045;-77
2023/03/02 03:50:32;;;;;;;3.28;2.22;;;;;;;;;;4983545;28;20121;-78
2023/03/02 03:52:58;;;;;;;5.35;2.28;;;;;;;;;;4982227;28;20027;-77
2023/03/02 03:55:27;;;;;;;3.55;2.25;;;;;;;;;;4981279;28;20022;-77
2023/03/02 03:57:53;;;;;;;4.45;2.20;;;;;;;;;;4982362;28;20026;-78
2023/03/02 04:03:25;;;;;;;4.32;2.47;;;;;;;;;;4942899;28;20434;-77
2023/03/02 04:05:51;;;;;;;5.15;2.28;;;;;;;;;;4947609;28;20024;-77
2023/03/02 04:08:17;;;;;;;2.92;2.08;;;;;;;;;;4964784;28;20058;-77
2023/03/02 04:10:44;;;;;;;5.03;2.28;;;;;;;;;;4982335;28;20034;-77
2023/03/02 04:13:10;;;;;;;2.38;1.75;;;;;;;;;;4982650;28;20038;-77
2023/03/02 04:15:36;;;;;;;4.03;1.95;;;;;;;;;;4984924;28;20030;-77
2023/03/02 04:18:02;;;;;;;3.70;2.20;;;;;;;;;;4982934;28;20065;-76
2023/03/02 04:20:29;;;;;;;3.10;2.03;;;;;;;;;;4986161;28;20485;-76
2023/03/02 04:22:55;;;;;;;4.93;2.33;;;;;;;;;;4984987;28;20042;-77
2023/03/02 04:25:23;;;;;;;7.35;2.47;;;;;;;;;;4981597;28;20031;-77
2023/03/02 04:27:53;;;;;;;3.17;2.20;;;;;;;;;;4985748;28;20050;-77
2023/03/02 04:30:20;;;;;;;2.10;1.52;;;;;;;;;;4987427;28;20034;-76
2023/03/02 04:32:46;;;;;;;3.35;2.20;;;;;;;;;;4977218;28;20161;-78
2023/03/02 04:35:13;;;;;;;2.70;1.80;;;;;;;;;;4979632;28;20142;-79
2023/03/02 04:37:39;;;;;;;4.22;2.17;;;;;;;;;;4984245;28;20456;-78
2023/03/02 04:40:05;;;;;;;3.60;2.47;;;;;;;;;;4984939;28;20018;-74
2023/03/02 04:42:31;;;;;;;3.90;1.75;;;;;;;;;;4979783;28;20035;-74
2023/03/02 04:44:57;;;;;;;2.92;2.35;;;;;;;;;;4981408;28;20022;-73
2023/03/02 04:47:23;;;;;;;4.28;2.20;;;;;;;;;;4976519;28;20038;-73
2023/03/02 04:49:53;;;;;;;3.78;1.90;;;;;;;;;;4976347;28;20027;-73
2023/03/02 04:52:19;;;;;;;4.28;2.53;;;;;;;;;;4978100;28;20042;-74
2023/03/02 04:54:45;;;;;;;4.30;1.88;;;;;;;;;;4981728;28;20018;-74
2023/03/02 04:57:11;;;;;;;2.38;1.88;;;;;;;;;;4983468;28;23149;-74
2023/03/02 04:59:37;;;;;;;3.17;2.25;;;;;;;;;;4985905;28;20105;-77
2023/03/02 05:02:03;;;;;;;4.20;2.15;;;;;;;;;;4982061;28;20389;-79
2023/03/02 05:04:30;;;;;;;4.40;2.15;;;;;;;;;;4987092;28;20054;-75
2023/03/02 05:06:56;;;;;;;3.85;2.33;;;;;;;;;;4972723;28;20757;-76
2023/03/02 05:09:26;;;;;;;6.32;2.20;;;;;;;;;;4973182;28;20038;-75
2023/03/02 05:11:58;;;;;;;4.55;2.42;;;;;;;;;;4980928;28;20031;-75
2023/03/02 05:14:24;;;;;;;3.03;2.08;;;;;;;;;;4982114;28;20031;-75
2023/03/02 05:16:51;;;;;;;4.18;2.38;;;;;;;;;;4983461;28;22037;-75
2023/03/02 05:19:17;;;;;;;4.45;2.25;;;;;;;;;;4986449;28;20481;-75
2023/03/02 05:21:43;;;;;;;4.60;2.30;;;;;;;;;;4989177;28;20030;-76
2023/03/02 05:24:10;;;;;;;2.85;1.95;;;;;;;;;;4989216;28;20022;-75
2023/03/02 05:26:36;;;;;;;4.95;2.15;;;;;;;;;;4987419;28;20035;-74
2023/03/02 05:29:02;;;;;;;6.95;2.70;;;;;;;;;;4988851;28;20038;-75
2023/03/02 05:31:30;;;;;;;6.03;2.15;;;;;;;;;;4988128;28;20052;-76
2023/03/02 05:33:56;;;;;;;5.22;2.67;;;;;;;;;;4988619;28;20026;-75
2023/03/02 05:36:22;;;;;;;8.27;2.17;;;;;;;;;;4988645;28;20037;-75
2023/03/02 05:38:48;;;;;;;3.42;2.30;;;;;;;;;;4986317;28;20034;-76
2023/03/02 05:41:14;;;;;;;3.17;2.13;;;;;;;;;;4987077;28;20096;-75
2023/03/02 05:43:40;;;;;;;3.42;2.50;;;;;;;;;;4988953;28;20046;-75
2023/03/02 05:46:06;;;;;;;8.00;2.55;;;;;;;;;;4988616;28;20215;-75
2023/03/02 05:48:32;;;;;;;4.57;2.40;;;;;;;;;;4988046;28;20088;-75
2023/03/02 05:50:58;;;;;;;4.93;2.42;;;;;;;;;;4987257;28;20026;-74
2023/03/02 05:53:24;;;;;;;3.25;2.22;;;;;;;;;;4987177;28;20035;-75
2023/03/02 05:55:51;;;;;;;4.97;2.30;;;;;;;;;;4988718;28;20068;-78
2023/03/02 05:58:18;;;;;;;3.83;2.15;;;;;;;;;;4988703;28;20114;-77
2023/03/02 06:00:44;;;;;;;5.68;2.35;;;;;;;;;;4987802;28;20035;-77
2023/03/02 06:03:10;;;;;;;4.15;2.00;;;;;;;;;;4983507;28;20039;-77
2023/03/02 06:05:36;;;;;;;4.47;2.13;;;;;;;;;;4988658;28;20034;-77
2023/03/02 06:08:03;;;;;;;5.25;2.40;;;;;;;;;;4987011;28;20524;-77
2023/03/02 06:10:29;;;;;;;4.07;2.17;;;;;;;;;;4988065;28;20079;-77
2023/03/02 06:13:05;;;;;;;4.90;2.55;;;;;;;;;;4987284;28;20023;-77
2023/03/02 06:15:31;;;;;;;4.45;2.42;;;;;;;;;;4988436;28;20026;-77
2023/03/02 06:17:57;;;;;;;4.18;2.20;;;;;;;;;;4987524;28;20053;-77
2023/03/02 06:20:23;;;;;;;4.63;1.90;;;;;;;;;;4987630;28;20118;-78
2023/03/02 06:22:49;;;;;;;3.30;2.00;;;;;;;;;;4985609;28;20117;-78
2023/03/02 06:25:16;;;;;;;5.15;2.33;;;;;;;;;;4971327;28;20040;-78
2023/03/02 06:27:43;;;;;;;7.03;2.80;;;;;;;;;;4987284;28;20034;-77
2023/03/02 06:30:10;;;;;;;3.80;2.47;;;;;;;;;;4986486;28;20026;-77
2023/03/02 06:32:36;;;;;;;6.22;2.40;;;;;;;;;;4986966;28;20109;-77
2023/03/02 06:35:04;;;;;;;2.85;1.92;;;;;;;;;;4985466;28;20407;-77
2023/03/02 06:37:30;;;;;;;4.30;2.67;;;;;;;;;;4985262;28;20038;-78
2023/03/02 06:39:57;;;;;;;4.65;2.03;;;;;;;;;;4986443;28;20039;-79
2023/03/02 06:42:23;;;;;;;3.83;2.25;;;;;;;;;;4983205;28;20075;-79
2023/03/02 06:44:50;;;;;;;4.38;2.08;;;;;;;;;;4986094;28;20033;-78
2023/03/02 06:47:16;;;;;;;4.20;2.38;;;;;;;;;;4987478;28;20030;-78
2023/03/02 06:49:42;;;;;;;4.53;2.25;;;;;;;;;;4987490;28;20037;-78
2023/03/02 06:52:09;;;;;;;3.75;1.77;;;;;;;;;;4985185;28;20417;-78
2023/03/02 06:54:35;;;;;;;4.70;2.38;;;;;;;;;;4986627;28;20021;-78
2023/03/02 06:57:01;;;;;;;4.10;2.35;;;;;;;;;;4986032;28;20473;-77
2023/03/02 06:59:27;;;;;;;3.75;2.08;;;;;;;;;;4987595;28;20053;-78
2023/03/02 07:01:53;;;;;;;2.88;2.03;;;;;;;;;;4984735;28;20041;-79
2023/03/02 07:04:19;;;;;;;4.82;2.35;;;;;;;;;;4987118;28;20386;-78
2023/03/02 07:06:45;;;;;;;3.63;2.50;;;;;;;;;;4984842;28;20073;-79
2023/03/02 07:09:11;;;;;;;6.70;2.30;;;;;;;;;;4986557;28;20033;-78
2023/03/02 07:11:37;;;;;;;3.67;2.35;;;;;;;;;;4987601;28;20030;-78
2023/03/02 07:14:03;;;;;;;4.70;2.83;;;;;;;;;;4986744;28;20052;-80
2023/03/02 07:16:30;;;;;;;3.67;2.42;;;;;;;;;;4982611;28;20550;-78
2023/03/02 07:18:56;;;;;;;6.70;2.58;;;;;;;;;;4984448;28;20030;-78
2023/03/02 07:21:27;;;;;;;3.78;2.40;;;;;;;;;;4982300;28;20034;-77
2023/03/02 07:23:53;;;;;;;6.93;3.22;;;;;;;;;;4986629;28;20512;-78
2023/03/02 07:26:19;;;;;;;4.72;2.20;;;;;;;;;;4986127;28;20057;-76
2023/03/02 07:28:45;;;;;;;3.13;2.67;;;;;;;;;;4981216;28;20081;-77
2023/03/02 07:31:11;;;;;;;6.15;2.83;;;;;;;;;;4984589;28;20073;-76
2023/03/02 07:33:41;;;;;;;4.35;2.60;;;;;;;;;;4980484;28;20030;-77
2023/03/02 07:36:07;;;;;;;4.28;2.13;;;;;;;;;;4986323;28;20037;-75
2023/03/02 07:38:33;;;;;;;6.00;2.25;;;;;;;;;;4985655;28;20027;-75
2023/03/02 07:40:59;;;;;;;3.40;2.30;;;;;;;;;;4975709;28;20053;-76
2023/03/02 07:43:27;;;;;;;4.80;2.95;;;;;;;;;;4984920;28;20783;-77
2023/03/02 07:45:53;;;;;;;5.55;2.70;;;;;;;;;;4983579;28;20497;-76
2023/03/02 07:48:22;;;;;;;6.38;2.55;;;;;;;;;;4984060;28;20091;-76
2023/03/02 07:50:47;;;;;;;4.25;2.33;;;;;;;;;;4983653;28;20057;-76
2023/03/02 07:53:13;;;;;;;5.35;2.28;;;;;;;;;;4990268;28;20045;-76
2023/03/02 07:55:40;;;;;;;3.72;2.03;;;;;;;;;;4983851;28;20545;-76
2023/03/02 07:58:06;;;;;;;3.45;2.40;;;;;;;;;;4992409;28;20113;-76
2023/03/02 08:00:35;;;;;;;5.03;2.88;;;;;;;;;;4983543;28;20033;-90
2023/03/02 08:03:01;;;;;;;4.78;2.30;;;;;;;;;;4982837;28;20783;-75
2023/03/02 08:05:27;;;;;;;3.70;2.25;;;;;;;;;;4982502;28;20681;-75
2023/03/02 08:07:53;;;;;;;3.58;2.08;;;;;;;;;;4986315;28;20117;-75
2023/03/02 08:10:19;;;;;;;3.92;2.22;;;;;;;;;;4988818;28;20037;-75
2023/03/02 08:13:05;;;;;;;4.10;2.25;;;;;;;;;;4978440;28;20047;-75
2023/03/02 08:15:31;;;;;;;3.67;2.10;;;;;;;;;;4997214;28;20034;-75
2023/03/02 08:17:57;;;;;;;3.97;2.20;;;;;;;;;;4980560;28;20053;-77
2023/03/02 08:20:23;;;;;;;4.15;1.58;;;;;;;;;;4982102;28;20093;-76
2023/03/02 08:22:53;;;;;;;3.95;2.10;;;;;;;;;;4977495;28;20121;-74
2023/03/02 08:25:19;;;;;;;4.55;2.15;;;;;;;;;;4974723;28;20037;-79
2023/03/02 08:27:51;;;;;;;3.85;2.25;;;;;;;;;;4981358;28;20038;-74
2023/03/02 08:30:17;;;;;;;3.60;2.20;;;;;;;;;;4984106;28;20492;-74
2023/03/02 08:32:43;;;;;;;4.40;2.20;;;;;;;;;;4984303;28;20571;-75
2023/03/02 08:35:12;;;;;;;3.75;2.47;;;;;;;;;;4993183;28;20022;-75
2023/03/02 08:37:38;;;;;;;3.95;1.88;;;;;;;;;;4981405;28;20019;-74
2023/03/02 08:40:04;;;;;;;4.78;2.25;;;;;;;;;;4987752;28;20081;-76
2023/03/02 08:42:30;;;;;;;2.45;1.92;;;;;;;;;;4979986;28;20132;-75
2023/03/02 08:44:56;;;;;;;2.70;1.73;;;;;;;;;;4981775;28;20474;-76
2023/03/02 08:47:22;;;;;;;2.17;1.70;;;;;;;;;;4978117;28;20089;-76
2023/03/02 08:49:49;;;;;;;2.30;2.05;;;;;;;;;;4982456;28;20500;-76
2023/03/02 08:52:15;;;;;;;6.97;2.20;;;;;;;;;;4978597;28;20028;-75
2023/03/02 08:54:41;;;;;;;3.00;2.00;;;;;;;;;;4973349;28;20018;-76
2023/03/02 08:57:09;;;;;;;3.03;1.92;;;;;;;;;;4971658;28;20065;-77
2023/03/02 08:59:35;;;;;;;4.97;2.40;;;;;;;;;;4973297;28;20033;-75
2023/03/02 09:02:01;;;;;;;2.83;1.75;;;;;;;;;;4978110;28;20022;-75
2023/03/02 09:04:27;;;;;;;3.65;2.20;;;;;;;;;;4974068;28;20022;-74
2023/03/02 09:06:53;;;;;;;3.33;2.03;;;;;;;;;;4976676;28;20026;-75
2023/03/02 09:09:19;;;;;;;3.85;2.22;;;;;;;;;;4977153;28;20055;-75
2023/03/02 09:11:45;;;;;;;3.28;1.90;;;;;;;;;;4983027;28;20034;-75
2023/03/02 09:14:11;;;;;;;4.22;2.35;;;;;;;;;;4982798;28;20625;-75
2023/03/02 09:16:37;;;;;;;5.18;2.30;;;;;;;;;;4994301;28;20032;-72
2023/03/02 09:19:03;;;;;;;3.85;2.35;;;;;;;;;;4988351;28;20027;-71
2023/03/02 09:21:29;;;;;;;5.15;2.28;;;;;;;;;;4994267;28;20571;-71
2023/03/02 09:23:57;;;;;;;4.50;2.40;;;;;;;;;;4992532;28;20026;-72
2023/03/02 09:26:23;;;;;;;3.72;1.80;;;;;;;;;;4988020;28;20041;-72
2023/03/02 09:28:49;;;;;;;4.97;2.28;;;;;;;;;;4985807;28;20031;-71
2023/03/02 09:31:15;;;;;;;4.07;2.13;;;;;;;;;;4984606;28;20409;-72
2023/03/02 09:33:41;;;;;;;3.13;1.70;;;;;;;;;;4984944;28;20026;-74
2023/03/02 09:36:12;;;;;;;2.92;1.98;;;;;;;;;;4985232;28;20026;-74
2023/03/02 09:38:38;;;;;;;4.07;1.93;;;;;;;;;;4987332;28;20037;-73
2023/03/02 09:41:23;;;;;;;2.08;1.45;;;;;;;;;;4985522;28;20816;-71
2023/03/02 09:43:49;;;;;;;2.70;1.38;;;;;;;;;;4981676;28;20623;-72
2023/03/02 09:46:17;;;;;;;3.17;1.95;;;;;;;;;;4984663;28;20032;-73
2023/03/02 09:48:59;;;;;;;2.72;1.85;;;;;;;;;;4987193;28;20066;-74
2023/03/02 09:51:33;;;;;;;2.45;1.60;;;;;;;;;;4985334;28;20062;-74
2023/03/02 09:54:08;;;;;;;2.70;1.73;;;;;;;;;;4985932;28;20040;-75
2023/03/02 09:56:42;;;;;;;2.80;1.98;;;;;;;;;;4986310;28;20754;-73
2023/03/02 09:59:29;;;;;;;4.28;2.00;;;;;;;;;;4986232;28;20094;-74
2023/03/02 10:02:05;;;;;;;3.63;1.80;;;;;;;;;;4987272;28;20021;-74
2023/03/02 10:04:32;;;;;;;3.58;1.90;;;;;;;;;;4987614;28;20080;-74
2023/03/02 10:07:10;;;;;;;1.85;1.35;;;;;;;;;;4987563;28;20034;-75
2023/03/02 10:09:39;;;;;;;2.10;1.67;;;;;;;;;;4969949;28;20057;-74
2023/03/02 10:12:23;;;;;;;3.50;1.58;;;;;;;;;;4989341;28;20033;-74
2023/03/02 10:14:58;;;;;;;4.10;1.75;;;;;;;;;;4990265;28;20066;-74
2023/03/02 10:17:32;;;;;;;3.80;1.85;;;;;;;;;;4987692;28;20030;-74
2023/03/02 10:20:22;;;;;;;2.33;1.77;;;;;;;;;;4989834;28;20060;-74
2023/03/02 10:22:52;;;;;;;2.65;1.30;;;;;;;;;;4984858;28;20069;-74
2023/03/02 10:25:18;;;;;;;1.92;1.50;;;;;;;;;;4990233;28;20081;-74
2023/03/02 10:27:49;;;;;;;2.10;1.60;;;;;;;;;;4989851;28;20568;-74
2023/03/02 10:30:15;;;;;;;;;;;;;;;;;;4990655;28;20089;-74
2023/03/02 10:32:43;;;;;;;2.53;1.50;;;;;;;;;;4990330;28;19913;-74
2023/03/02 10:35:14;;;;;;;2.72;1.52;;;;;;;;;;4987570;28;20077;-74
2023/03/02 10:37:40;;;;;;;2.58;1.48;;;;;;;;;;4990048;28;20032;-74
2023/03/02 10:40:06;;;;;;;2.20;1.60;;;;;;;;;;4987206;28;20030;-73
2023/03/02 10:42:36;;;;;;;3.60;1.80;;;;;;;;;;4989536;28;20037;-74
2023/03/02 10:45:08;;;;;;;2.70;1.58;;;;;;;;;;4988302;28;20114;-74
2023/03/02 10:47:34;;;;;;;2.53;1.67;;;;;;;;;;4989690;28;20031;-74
2023/03/02 10:50:00;;;;;;;3.58;1.55;;;;;;;;;;4988478;28;20037;-74
2023/03/02 10:52:28;;;;;;;2.97;1.70;;;;;;;;;;4989457;28;20030;-74
2023/03/02 10:55:12;;;;;;;1.77;1.25;;;;;;;;;;4988445;28;20030;-74
2023/03/02 10:57:39;;;;;;;1.38;1.13;;;;;;;;;;4989721;28;20018;-74
2023/03/02 11:00:11;;;;;;;2.78;1.75;;;;;;;;;;4987372;28;20136;-74
2023/03/02 11:02:37;;;;;;;2.42;1.48;;;;;;;;;;4987528;28;20073;-74
2023/03/02 11:05:21;;;;;;;3.15;1.75;;;;;;;;;;4987737;28;20113;-74
2023/03/02 11:07:55;;;;;;;1.85;1.30;;;;;;;;;;4981518;28;20080;-74
2023/03/02 11:10:22;;;;;;;2.10;1.67;;;;;;;;;;4984524;28;20058;-74
2023/03/02 11:12:49;;;;;;;1.95;1.30;;;;;;;;;;4985948;28;20027;-73
2023/03/02 11:15:41;;;;;;;4.68;1.52;;;;;;;;;;4988264;28;20223;-74
2023/03/02 11:18:15;;;;;;;1.98;1.35;;;;;;;;;;4985433;28;20039;-74
2023/03/02 11:20:43;;;;;;;1.80;1.20;;;;;;;;;;4987879;28;20030;-74
2023/03/02 11:23:15;;;;;;;1.98;1.45;;;;;;;;;;4986591;28;20034;-74
2023/03/02 11:25:45;;;;;;;1.25;1.05;;;;;;;;;;4982225;28;20030;-74
2023/03/02 11:28:34;;;;;;;2.03;1.33;;;;;;;;;;4987557;28;20030;-74
2023/03/02 11:31:02;;;;;;;3.10;1.50;;;;;;;;;;4988593;28;20030;-74
2023/03/02 11:33:34;;;;;;;1.17;0.93;;;;;;;;;;4986358;28;20084;-74
2023/03/02 11:36:15;;;;;;;1.75;1.42;;;;;;;;;;4985945;28;20164;-74
2023/03/02 11:38:52;;;;;;;2.15;1.42;;;;;;;;;;4987533;28;20393;-74
2023/03/02 11:41:28;;;;;;;2.03;1.35;;;;;;;;;;4988601;28;20030;-74
2023/03/02 11:43:54;;;;;;;2.58;1.23;;;;;;;;;;4986906;28;20034;-73
2023/03/02 11:46:25;;;;;;;1.58;1.10;;;;;;;;;;4988362;28;20026;-74
2023/03/02 11:48:53;;;;;;;1.83;0.95;;;;;;;;;;4986817;28;20034;-74
2023/03/02 11:51:21;;;;;;;2.83;1.25;;;;;;;;;;4987907;28;20045;-74
2023/03/02 11:54:01;;;;;;;2.83;1.13;;;;;;;;;;4986193;28;20490;-75
2023/03/02 11:56:30;;;;;;;3.08;1.20;;;;;;;;;;4988289;28;20050;-74
2023/03/02 11:58:58;;;;;;;1.27;1.17;;;;;;;;;;4986558;28;20114;-74
2023/03/02 12:01:26;;;;;;;1.63;1.20;;;;;;;;;;4986179;28;20034;-74
2023/03/02 12:03:53;;;;;;;1.85;1.17;;;;;;;;;;4986589;28;20511;-74
2023/03/02 12:06:23;;;;;;;1.70;1.10;;;;;;;;;;4988200;28;20030;-74
2023/03/02 12:08:51;;;;;;;1.08;0.98;;;;;;;;;;4988253;28;20049;-74
2023/03/02 12:11:17;;;;;;;3.22;1.15;;;;;;;;;;4987899;28;20117;-74
2023/03/02 12:13:44;;;;;;;2.42;1.35;;;;;;;;;;4983766;28;20439;-74
2023/03/02 12:16:21;;;;;;;1.52;1.10;;;;;;;;;;4988372;28;20022;-74
2023/03/02 12:18:48;;;;;;;4.10;1.00;;;;;;;;;;4988210;28;20034;-74
2023/03/02 12:21:19;;;;;;;2.97;1.30;;;;;;;;;;4987607;28;20121;-74
2023/03/02 12:23:45;;;;;;;1.70;1.15;;;;;;;;;;4984203;28;20121;-74
2023/03/02 12:26:20;;;;;;;1.02;0.88;;;;;;;;;;4987898;28;20030;-74
2023/03/02 12:29:01;;;;;;;2.63;1.50;;;;;;;;;;4988069;28;20054;-74
2023/03/02 12:31:39;;;;;;;1.52;1.17;;;;;;;;;;4982265;28;20061;-73
2023/03/02 12:34:15;;;;;;;1.38;1.13;;;;;;;;;;4984372;28;20030;-73
2023/03/02 12:36:42;;;;;;;1.02;0.90;;;;;;;;;;4983249;28;20092;-74
2023/03/02 12:39:11;;;;;;;2.63;1.50;;;;;;;;;;4986311;28;20036;-74
2023/03/02 12:41:57;;;;;;;1.58;1.08;;;;;;;;;;4987888;28;20034;-74
2023/03/02 12:44:37;;;;;;;1.55;1.45;;;;;;;;;;4987283;28;20117;-74
2023/03/02 12:47:03;;;;;;;1.35;0.95;;;;;;;;;;4984141;28;20026;-75
2023/03/02 12:49:45;;;;;;;1.40;1.10;;;;;;;;;;4987688;28;20023;-75
2023/03/02 12:52:22;;;;;;;1.90;1.10;;;;;;;;;;4987718;28;20026;-74
2023/03/02 12:54:58;;;;;;;1.30;1.20;;;;;;;;;;4987528;28;20528;-74
2023/03/02 12:57:24;;;;;;;1.52;1.13;;;;;;;;;;4983060;28;20272;-74
2023/03/02 12:59:51;;;;;;;2.28;1.25;;;;;;;;;;4983488;28;20114;-74
2023/03/02 13:02:21;;;;;;;2.05;1.20;;;;;;;;;;4984376;28;20031;-73
2023/03/02 13:04:55;;;;;;;1.47;1.30;;;;;;;;;;4987730;28;20018;-73
2023/03/02 13:07:23;;;;;;;1.98;1.50;;;;;;;;;;4974543;28;20220;-73
2023/03/02 13:10:09;;;;;;;1.67;0.90;;;;;;;;;;4985276;28;20056;-73
2023/03/02 13:12:36;;;;;;;1.25;1.08;;;;;;;;;;4985386;28;20055;-74
2023/03/02 13:15:02;;;;;;;1.40;1.10;;;;;;;;;;4986655;28;20029;-73
2023/03/02 13:17:30;;;;;;;1.20;0.90;;;;;;;;;;4987073;28;20026;-74
2023/03/02 13:20:00;;;;;;;2.33;1.20;;;;;;;;;;4985847;28;20154;-74
2023/03/02 13:22:27;;;;;;;1.92;1.23;;;;;;;;;;4986583;28;20022;-74
2023/03/02 13:24:59;;;;;;;1.00;1.00;;;;;;;;;;4985821;28;20058;-76
2023/03/02 13:27:25;;;;;;;1.33;1.00;;;;;;;;;;4974195;28;20047;-76
2023/03/02 13:29:52;;;;;;;2.10;1.50;;;;;;;;;;4984278;28;20040;-75
2023/03/02 13:32:21;;;;;;;2.30;1.38;;;;;;;;;;4984459;28;20026;-75
2023/03/02 13:34:49;;;;;;;1.70;1.27;;;;;;;;;;4982396;28;20030;-75
2023/03/02 13:37:19;;;;;;;2.08;1.65;;;;;;;;;;4983428;28;20034;-76
2023/03/02 13:39:54;;;;;;;2.58;1.33;;;;;;;;;;4978247;28;20539;-75
2023/03/02 13:42:25;;;;;;;2.08;1.45;;;;;;;;;;4985295;28;20114;-75
2023/03/02 13:44:50;;;;;;;2.47;1.50;;;;;;;;;;4991077;28;20023;-75
2023/03/02 13:47:21;;;;;;;2.38;1.75;;;;;;;;;;4991083;28;20035;-75
2023/03/02 13:49:47;;;;;;;2.72;1.80;;;;;;;;;;4990455;28;20026;-75
2023/03/02 13:52:17;;;;;;;2.38;1.52;;;;;;;;;;4986775;28;20385;-75
2023/03/02 13:54:46;;;;;;;2.92;1.80;;;;;;;;;;4990212;28;20022;-75
2023/03/02 13:57:17;;;;;;;3.38;1.70;;;;;;;;;;4991145;28;20084;-75
2023/03/02 13:59:43;;;;;;;3.08;1.67;;;;;;;;;;4981075;28;20041;-76
2023/03/02 14:02:19;;;;;;;1.85;1.48;;;;;;;;;;4975970;28;20044;-76
2023/03/02 14:04:48;;;;;;;2.72;1.70;;;;;;;;;;4978928;28;20477;-76
2023/03/02 14:07:14;;;;;;;3.03;1.40;;;;;;;;;;4979997;28;20031;-76
2023/03/02 14:09:40;;;;;;;3.72;1.60;;;;;;;;;;4981690;28;20440;-76
2023/03/02 14:12:06;;;;;;;1.77;1.25;;;;;;;;;;4983385;28;20026;-76
2023/03/02 14:14:35;;;;;;;1.67;1.10;;;;;;;;;;4990001;28;20041;-76
2023/03/02 14:17:02;;;;;;;1.90;1.20;;;;;;;;;;4985725;28;20070;-76
2023/03/02 14:19:28;;;;;;;2.67;1.70;;;;;;;;;;4976763;28;20021;-76
2023/03/02 14:21:54;;;;;;;2.15;1.20;;;;;;;;;;4978882;28;20023;-76
2023/03/02 14:24:19;;;;;;;1.45;1.15;;;;;;;;;;4978057;28;20026;-76
2023/03/02 14:26:47;;;;;;;1.40;1.13;;;;;;;;;;4985583;28;20026;-76
2023/03/02 14:29:26;;;;;;;1.92;1.10;;;;;;;;;;4990511;28;20041;-76
2023/03/02 14:31:53;;;;;;;1.33;1.08;;;;;;;;;;4978724;28;20026;-76
2023/03/02 14:34:19;;;;;;;1.33;1.10;;;;;;;;;;4980963;28;20026;-76
2023/03/02 14:36:46;;;;;;;2.33;1.23;;;;;;;;;;4984231;28;20041;-76
2023/03/02 14:39:18;;;;;;;1.30;1.20;;;;;;;;;;4990347;28;20019;-76
2023/03/02 14:41:44;;;;;;;1.80;1.20;;;;;;;;;;4985746;28;20744;-76
2023/03/02 14:44:11;;;;;;;1.88;1.30;;;;;;;;;;4981072;28;20043;-76
2023/03/02 14:46:36;;;;;;;1.90;1.08;;;;;;;;;;4976560;28;20050;-76
2023/03/02 14:49:02;;;;;;;1.00;0.90;;;;;;;;;;4983064;28;20508;-76
2023/03/02 14:51:31;;;;;;;2.00;1.23;;;;;;;;;;4990975;28;20026;-75
2023/03/02 14:53:58;;;;;;;1.67;1.02;;;;;;;;;;4984141;28;20417;-76